Time;durP1;ratioP1;P1;durP2;ratioP2;P2;SDS_P1;SDS_P2;PMS_P1;PMS_P2;Temp;Humidity;BMP_temperature;BMP_pressure;BME280_temperature;BME280_humidity;BME280_pressure;Samples;Min_cycle;Max_cycle;Signal;HPM_P1;HPM_P2
2024/01/26 00:02:04;;;;;;;75.35;12.30;;;;;;;9.41;85.45;100518.47;4971435;28;20158;-74
2024/01/26 00:04:31;;;;;;;153.68;14.98;;;;;;;9.43;85.38;100509.59;4971057;28;20085;-75
2024/01/26 00:06:58;;;;;;;66.60;10.75;;;;;;;9.46;85.28;100501.56;4954246;28;20106;-74
2024/01/26 00:09:25;;;;;;;176.05;15.65;;;;;;;9.49;85.14;100511.97;4971178;28;20057;-76
2024/01/26 00:11:52;;;;;;;148.82;12.57;;;;;;;9.51;85.09;100510.16;4971471;28;20141;-75
2024/01/26 00:14:18;;;;;;;166.43;14.77;;;;;;;9.54;85.26;100511.81;4970906;28;20058;-74
2024/01/26 00:16:45;;;;;;;233.20;16.75;;;;;;;9.55;85.05;100510.88;4970785;28;20125;-74
2024/01/26 00:19:12;;;;;;;168.20;15.68;;;;;;;9.57;85.08;100511.66;4971332;28;20416;-75
2024/01/26 00:21:39;;;;;;;283.55;20.42;;;;;;;9.59;85.13;100506.34;4971593;28;20138;-74
2024/01/26 00:24:06;;;;;;;176.60;15.68;;;;;;;9.61;85.04;100507.16;4971422;28;20047;-75
2024/01/26 00:26:33;;;;;;;262.55;21.33;;;;;;;9.62;85.08;100506.22;4972847;28;20066;-75
2024/01/26 00:28:59;;;;;;;292.30;21.98;;;;;;;9.65;85.09;100503.47;4957948;28;20051;-75
2024/01/26 00:31:26;;;;;;;255.85;19.98;;;;;;;9.65;84.76;100500.84;4974972;28;20416;-74
2024/01/26 00:33:53;;;;;;;317.25;25.35;;;;;;;9.68;85.07;100502.50;4974688;28;20158;-75
2024/01/26 00:36:20;;;;;;;318.60;22.35;;;;;;;9.70;85.16;100496.25;4974906;28;20130;-74
2024/01/26 00:38:46;;;;;;;333.83;23.25;;;;;;;9.71;85.03;100491.81;4975132;28;20050;-75
2024/01/26 00:41:13;;;;;;;409.20;28.83;;;;;;;9.72;85.26;100493.56;4975066;28;20051;-75
2024/01/26 00:43:39;;;;;;;388.48;26.70;;;;;;;9.72;85.15;100485.69;4974540;28;20113;-74
2024/01/26 00:46:08;;;;;;;445.27;27.65;;;;;;;9.74;85.33;100496.97;4957618;28;20063;-75
2024/01/26 00:48:34;;;;;;;493.55;29.33;;;;;;;9.76;85.37;100488.09;4957580;28;20062;-75
2024/01/26 00:51:06;;;;;;;466.88;30.13;;;;;;;9.76;85.37;100480.22;4975028;28;20054;-75
2024/01/26 00:53:33;;;;;;;454.35;32.72;;;;;;;9.76;85.22;100484.63;4974634;28;20051;-75
2024/01/26 00:55:59;;;;;;;477.55;30.38;;;;;;;9.78;85.58;100480.16;4974451;28;20113;-75
2024/01/26 00:58:26;;;;;;;558.60;35.10;;;;;;;9.78;85.74;100483.66;4973986;28;20065;-76
2024/01/26 01:00:52;;;;;;;497.98;33.88;;;;;;;9.81;85.69;100489.69;4974378;28;20050;-75
2024/01/26 01:03:19;;;;;;;456.67;33.15;;;;;;;9.82;85.94;100486.13;4974313;28;20539;-75
2024/01/26 01:05:46;;;;;;;417.13;32.05;;;;;;;9.84;86.17;100479.03;4974343;28;20125;-75
2024/01/26 01:08:13;;;;;;;435.23;32.15;;;;;;;9.85;86.09;100478.97;4973352;28;20069;-78
2024/01/26 01:10:39;;;;;;;455.80;37.45;;;;;;;9.88;86.10;100478.00;4974339;28;20511;-74
2024/01/26 01:13:10;;;;;;;472.63;33.00;;;;;;;9.89;86.16;100463.91;4973902;28;20134;-74
2024/01/26 01:15:39;;;;;;;411.65;34.00;;;;;;;9.91;86.08;100460.28;4974143;28;20476;-75
2024/01/26 01:18:06;;;;;;;458.25;34.90;;;;;;;9.95;86.13;100454.91;4973777;28;20066;-74
2024/01/26 01:20:33;;;;;;;504.35;34.63;;;;;;;9.98;86.19;100460.06;4973668;28;20110;-75
2024/01/26 01:23:00;;;;;;;499.58;37.17;;;;;;;9.99;86.31;100453.88;4973509;28;20205;-75
2024/01/26 01:25:26;;;;;;;306.63;26.85;;;;;;;10.03;86.50;100456.28;4973624;28;20054;-75
2024/01/26 01:27:53;;;;;;;250.82;26.63;;;;;;;10.06;86.61;100447.44;4973628;28;20122;-76
2024/01/26 01:30:20;;;;;;;248.70;26.23;;;;;;;10.07;86.45;100443.88;4973734;28;20473;-73
2024/01/26 01:32:47;;;;;;;327.27;28.00;;;;;;;10.09;86.55;100442.00;4973743;28;20086;-76
2024/01/26 01:35:14;;;;;;;286.10;27.95;;;;;;;10.12;86.71;100441.88;4974019;28;20459;-73
2024/01/26 01:37:41;;;;;;;270.23;29.58;;;;;;;10.15;86.95;100447.00;4972647;28;20042;-75
2024/01/26 01:40:08;;;;;;;296.63;27.55;;;;;;;10.18;86.86;100451.28;4973736;28;20137;-76
2024/01/26 01:42:34;;;;;;;352.45;31.90;;;;;;;10.22;86.95;100438.84;4973624;28;20105;-73
2024/01/26 01:45:01;;;;;;;374.42;32.42;;;;;;;10.25;87.04;100431.66;4973600;28;20125;-76
2024/01/26 01:47:28;;;;;;;407.25;36.92;;;;;;;10.29;87.01;100445.53;4973124;28;20737;-75
2024/01/26 01:49:55;;;;;;;363.30;30.63;;;;;;;10.30;86.96;100442.84;4973546;28;20502;-74
2024/01/26 01:52:26;;;;;;;299.80;31.98;;;;;;;10.33;86.96;100435.72;4973219;28;20126;-75
2024/01/26 01:54:55;;;;;;;351.38;34.35;;;;;;;10.37;86.83;100432.91;4956050;28;20057;-76
2024/01/26 01:57:23;;;;;;;276.48;28.20;;;;;;;10.39;86.77;100431.03;4973541;28;20127;-76
2024/01/26 01:59:50;;;;;;;423.10;36.92;;;;;;;10.42;86.75;100419.50;4973459;28;20058;-75
2024/01/26 02:02:16;;;;;;;358.17;30.92;;;;;;;10.45;86.82;100419.41;4973352;28;20507;-75
2024/01/26 02:04:43;;;;;;;480.27;38.80;;;;;;;10.46;86.76;100415.00;4973093;28;20469;-78
2024/01/26 02:07:09;;;;;;;362.80;32.35;;;;;;;10.48;86.76;100406.13;4973026;28;20126;-74
2024/01/26 02:09:36;;;;;;;338.48;33.17;;;;;;;10.49;86.71;100406.94;4973023;28;20130;-74
2024/01/26 02:12:02;;;;;;;346.95;33.95;;;;;;;10.51;86.65;100411.22;4973334;28;20078;-76
2024/01/26 02:14:29;;;;;;;236.93;31.23;;;;;;;10.53;86.84;100405.88;4972977;28;20050;-75
2024/01/26 02:17:00;;;;;;;287.10;32.47;;;;;;;10.53;86.89;100412.03;4972914;28;20476;-75
2024/01/26 02:19:29;;;;;;;386.88;36.88;;;;;;;10.55;87.02;100406.69;4972649;28;20097;-76
2024/01/26 02:21:56;;;;;;;316.95;35.22;;;;;;;10.57;86.95;100404.00;4955739;28;20078;-75
2024/01/26 02:24:22;;;;;;;205.93;30.90;;;;;;;10.59;87.18;100408.25;4972645;28;20480;-75
2024/01/26 02:26:49;;;;;;;185.38;28.95;;;;;;;10.62;87.05;100409.88;4973000;28;20117;-78
2024/01/26 02:29:16;;;;;;;87.20;27.30;;;;;;;10.64;87.21;100410.66;4972441;28;20060;-75
2024/01/26 02:31:42;;;;;;;71.88;27.25;;;;;;;10.65;87.33;100401.84;4972943;28;20082;-75
2024/01/26 02:34:12;;;;;;;71.63;27.30;;;;;;;10.69;87.25;100400.75;4972789;28;20066;-75
2024/01/26 02:36:39;;;;;;;66.93;27.70;;;;;;;10.71;87.28;100403.31;4972909;28;20059;-73
2024/01/26 02:39:06;;;;;;;53.50;27.52;;;;;;;10.72;87.29;100382.19;4972884;28;20061;-77
2024/01/26 02:41:34;;;;;;;56.42;26.92;;;;;;;10.74;87.29;100376.84;4954982;28;20476;-74
2024/01/26 02:44:02;;;;;;;54.22;25.98;;;;;;;10.76;87.27;100375.84;4972179;28;20130;-76
2024/01/26 02:46:29;;;;;;;44.88;26.10;;;;;;;10.79;87.14;100382.75;4972621;28;20055;-76
2024/01/26 02:48:55;;;;;;;39.85;26.27;;;;;;;10.82;87.47;100377.34;4972018;28;20078;-78
2024/01/26 02:51:22;;;;;;;38.75;26.45;;;;;;;10.84;87.60;100372.00;4954354;28;20050;-75
2024/01/26 02:53:49;;;;;;;40.22;27.75;;;;;;;10.85;87.39;100365.81;4972228;28;20051;-74
2024/01/26 02:56:16;;;;;;;40.13;26.73;;;;;;;10.88;87.46;100365.66;4972360;28;20051;-75
2024/01/26 02:58:42;;;;;;;40.17;26.77;;;;;;;10.89;87.06;100352.41;4955276;28;20046;-74
2024/01/26 03:01:09;;;;;;;38.55;26.63;;;;;;;10.92;87.49;100348.78;4972148;28;20078;-75
2024/01/26 03:03:35;;;;;;;40.45;26.80;;;;;;;10.93;87.36;100348.72;4952776;29;20063;-75
2024/01/26 03:06:02;;;;;;;36.63;26.42;;;;;;;10.95;87.29;100351.25;4952788;29;20059;-74
2024/01/26 03:08:31;;;;;;;38.88;27.48;;;;;;;10.96;87.18;100337.16;4953145;29;20098;-75
2024/01/26 03:10:58;;;;;;;41.03;26.67;;;;;;;10.98;87.23;100330.03;4956761;28;20588;-74
2024/01/26 03:13:24;;;;;;;40.38;27.23;;;;;;;10.99;87.21;100329.09;4972057;28;20061;-74
2024/01/26 03:15:51;;;;;;;42.22;27.42;;;;;;;11.00;87.30;100319.41;4971999;28;20138;-75
2024/01/26 03:18:18;;;;;;;40.20;28.05;;;;;;;11.03;87.29;100325.38;4972197;28;20098;-74
2024/01/26 03:20:45;;;;;;;41.45;28.50;;;;;;;11.05;87.16;100328.81;4972207;28;20061;-75
2024/01/26 03:23:13;;;;;;;40.92;27.85;;;;;;;11.06;87.15;100325.22;4971603;28;20742;-74
2024/01/26 03:25:40;;;;;;;39.08;28.00;;;;;;;11.08;87.29;100317.25;4972058;28;20547;-74
2024/01/26 03:28:07;;;;;;;39.42;29.15;;;;;;;11.09;87.16;100324.22;4972020;28;20053;-75
2024/01/26 03:30:34;;;;;;;39.70;28.42;;;;;;;11.10;87.29;100306.66;4972019;28;20500;-75
2024/01/26 03:33:01;;;;;;;44.30;30.63;;;;;;;11.11;87.17;100310.97;4971007;28;20049;-74
2024/01/26 03:35:28;;;;;;;39.75;27.70;;;;;;;11.13;87.32;100309.09;4971971;28;20051;-77
2024/01/26 03:37:55;;;;;;;41.92;28.52;;;;;;;11.15;87.36;100309.91;4971988;28;20175;-73
2024/01/26 03:40:24;;;;;;;41.38;27.88;;;;;;;11.15;87.13;100310.75;4971813;28;20093;-73
2024/01/26 03:42:51;;;;;;;35.20;26.42;;;;;;;11.17;87.05;100311.50;4971108;28;20089;-75
2024/01/26 03:45:18;;;;;;;38.17;26.30;;;;;;;11.19;87.27;100311.44;4971837;28;20055;-75
2024/01/26 03:47:45;;;;;;;35.95;25.52;;;;;;;11.20;87.28;100308.72;4972108;28;20124;-74
2024/01/26 03:50:12;;;;;;;35.55;25.80;;;;;;;11.22;87.36;100300.75;4971717;28;20076;-74
2024/01/26 03:52:39;;;;;;;36.92;25.23;;;;;;;11.23;87.28;100302.44;4971745;28;20444;-76
2024/01/26 03:55:07;;;;;;;33.72;25.50;;;;;;;11.24;87.33;100298.88;4971477;28;20051;-73
2024/01/26 03:57:35;;;;;;;35.92;25.45;;;;;;;11.25;87.41;100283.94;4972225;28;20057;-76
2024/01/26 04:00:06;;;;;;;39.65;26.90;;;;;;;11.27;87.21;100282.91;4971596;28;20051;-77
2024/01/26 04:02:32;;;;;;;34.63;26.50;;;;;;;11.28;87.24;100281.13;4974885;28;20082;-75
2024/01/26 04:04:59;;;;;;;33.53;24.90;;;;;;;11.28;87.21;100281.97;4957900;28;20912;-75
2024/01/26 04:07:25;;;;;;;33.03;25.67;;;;;;;11.30;87.21;100281.91;4975485;28;20090;-76
2024/01/26 04:09:52;;;;;;;34.97;24.85;;;;;;;11.31;87.32;100278.34;4958657;28;20412;-74
2024/01/26 04:12:19;;;;;;;32.70;24.27;;;;;;;11.31;87.32;100276.56;4975640;28;20110;-74
2024/01/26 04:14:46;;;;;;;32.13;24.85;;;;;;;11.33;87.24;100276.50;4974608;28;20519;-74
2024/01/26 04:17:13;;;;;;;35.20;25.02;;;;;;;11.32;87.28;100265.09;4975420;28;20050;-74
2024/01/26 04:19:39;;;;;;;30.98;23.95;;;;;;;11.34;87.19;100252.66;4958110;28;20728;-76
2024/01/26 04:22:06;;;;;;;32.88;24.55;;;;;;;11.32;87.24;100238.72;4975658;28;20082;-77
2024/01/26 04:24:34;;;;;;;31.05;23.98;;;;;;;11.34;87.20;100238.66;4974613;28;20487;-73
2024/01/26 04:27:01;;;;;;;33.28;24.10;;;;;;;11.35;87.39;100227.16;4957945;28;20137;-76
2024/01/26 04:29:28;;;;;;;30.02;23.77;;;;;;;11.36;87.17;100235.94;4958400;28;20090;-75
2024/01/26 04:31:55;;;;;;;29.60;23.08;;;;;;;11.37;87.21;100232.38;4975263;28;20455;-75
2024/01/26 04:34:21;;;;;;;30.98;23.08;;;;;;;11.38;87.00;100218.25;4974971;28;20599;-75
2024/01/26 04:36:48;;;;;;;29.60;21.98;;;;;;;11.37;86.73;100219.19;4974732;28;20047;-75
2024/01/26 04:39:16;;;;;;;29.63;22.35;;;;;;;11.38;86.95;100207.69;4975084;28;20058;-76
2024/01/26 04:41:43;;;;;;;28.10;21.92;;;;;;;11.38;86.90;100194.53;4974858;28;20050;-74
2024/01/26 04:44:10;;;;;;;31.60;22.73;;;;;;;11.37;86.84;100183.16;4974955;28;20107;-74
2024/01/26 04:46:37;;;;;;;31.15;22.73;;;;;;;11.37;86.76;100187.56;4974775;28;20419;-77
2024/01/26 04:49:04;;;;;;;29.08;22.00;;;;;;;11.37;86.92;100179.66;4975038;28;20054;-74
2024/01/26 04:51:30;;;;;;;30.42;21.70;;;;;;;11.36;86.85;100177.94;4975064;28;20109;-75
2024/01/26 04:53:57;;;;;;;26.10;21.75;;;;;;;11.36;86.75;100184.06;4957546;28;20051;-77
2024/01/26 04:56:24;;;;;;;30.58;22.98;;;;;;;11.36;86.73;100183.22;4974427;28;20097;-75
2024/01/26 04:58:51;;;;;;;30.20;21.60;;;;;;;11.36;86.73;100175.31;4974569;28;20152;-74
2024/01/26 05:01:17;;;;;;;29.02;22.20;;;;;;;11.35;86.87;100169.19;4957663;28;20047;-75
2024/01/26 05:03:44;;;;;;;27.10;20.48;;;;;;;11.34;86.93;100164.84;4974732;28;20093;-76
2024/01/26 05:06:11;;;;;;;29.27;20.92;;;;;;;11.33;86.97;100164.00;4974654;28;20051;-77
2024/01/26 05:08:38;;;;;;;25.08;20.00;;;;;;;11.34;87.15;100156.94;4973548;28;20077;-75
2024/01/26 05:11:05;;;;;;;24.60;20.05;;;;;;;11.34;87.14;100136.69;4974284;28;20134;-74
2024/01/26 05:13:32;;;;;;;24.80;18.73;;;;;;;11.36;87.17;100135.78;4973355;28;20542;-75
2024/01/26 05:15:58;;;;;;;25.80;20.23;;;;;;;11.37;87.17;100140.13;4957295;28;20125;-80
2024/01/26 05:18:25;;;;;;;22.08;17.50;;;;;;;11.38;86.97;100123.34;4974047;28;20054;-77
2024/01/26 05:20:51;;;;;;;25.92;19.77;;;;;;;11.37;87.17;100130.44;4974589;28;20094;-75
2024/01/26 05:23:18;;;;;;;24.08;18.77;;;;;;;11.38;87.16;100129.50;4974060;28;20649;-77
2024/01/26 05:25:45;;;;;;;22.90;18.52;;;;;;;11.39;87.26;100133.81;4974414;28;20086;-74
2024/01/26 05:28:11;;;;;;;24.83;18.20;;;;;;;11.40;87.22;100134.69;4973910;28;20611;-75
2024/01/26 05:30:38;;;;;;;23.25;18.33;;;;;;;11.40;87.26;100135.50;4974371;28;20101;-75
2024/01/26 05:33:05;;;;;;;21.65;16.92;;;;;;;11.41;87.23;100126.69;4973620;28;20055;-78
2024/01/26 05:35:32;;;;;;;24.02;17.30;;;;;;;11.43;86.99;100130.09;4974031;28;20057;-74
2024/01/26 05:37:58;;;;;;;23.52;17.48;;;;;;;11.45;87.12;100137.91;4956953;28;20065;-76
2024/01/26 05:40:25;;;;;;;22.95;16.95;;;;;;;11.45;87.15;100135.28;4973812;28;20047;-76
2024/01/26 05:42:52;;;;;;;25.40;18.58;;;;;;;11.46;87.13;100136.97;4973682;28;20459;-73
2024/01/26 05:45:19;;;;;;;29.40;18.92;;;;;;;11.47;87.29;100126.34;4973862;28;20141;-79
2024/01/26 05:47:47;;;;;;;25.23;19.25;;;;;;;11.47;87.21;100130.75;4973697;28;20055;-75
2024/01/26 05:50:17;;;;;;;27.40;19.45;;;;;;;11.47;86.95;100117.56;4973361;28;20049;-75
2024/01/26 05:52:43;;;;;;;25.70;21.38;;;;;;;11.49;87.29;100121.00;4973536;28;20047;-75
2024/01/26 05:55:10;;;;;;;29.05;21.40;;;;;;;11.50;87.34;100122.69;4973915;28;20078;-74
2024/01/26 05:57:37;;;;;;;30.63;22.20;;;;;;;11.52;87.50;100130.50;4973674;28;20488;-74
2024/01/26 06:00:04;;;;;;;29.27;23.40;;;;;;;11.50;87.38;100117.41;4973295;28;20443;-75
2024/01/26 06:02:31;;;;;;;32.33;23.85;;;;;;;11.54;87.57;100111.03;4937420;29;20047;-75
2024/01/26 06:04:58;;;;;;;35.47;25.05;;;;;;;11.55;87.61;100107.47;4953830;29;20539;-75
2024/01/26 06:07:24;;;;;;;32.60;25.80;;;;;;;11.56;87.35;100109.16;4937288;29;20057;-75
2024/01/26 06:09:51;;;;;;;33.95;26.15;;;;;;;11.57;87.41;100095.06;4941350;28;20094;-75
2024/01/26 06:12:17;;;;;;;34.30;26.45;;;;;;;11.61;87.28;100093.09;4973438;28;20518;-74
2024/01/26 06:14:44;;;;;;;35.67;27.00;;;;;;;11.61;87.46;100082.53;4973276;28;20058;-75
2024/01/26 06:17:11;;;;;;;36.15;28.40;;;;;;;11.62;87.32;100081.59;4973112;28;20688;-75
2024/01/26 06:19:38;;;;;;;37.17;27.98;;;;;;;11.63;87.37;100083.31;4973162;28;20046;-76
2024/01/26 06:22:05;;;;;;;38.70;28.00;;;;;;;11.65;87.47;100085.84;4973467;28;20529;-75
2024/01/26 06:24:31;;;;;;;36.60;29.23;;;;;;;11.65;87.41;100081.44;4972593;28;20090;-75
2024/01/26 06:26:58;;;;;;;39.25;27.80;;;;;;;11.67;87.48;100074.28;4973218;28;20054;-75
2024/01/26 06:29:25;;;;;;;41.90;30.15;;;;;;;11.69;87.48;100079.47;4973181;28;20082;-74
2024/01/26 06:31:52;;;;;;;40.35;28.38;;;;;;;11.70;87.51;100074.09;4972813;28;20468;-73
2024/01/26 06:34:18;;;;;;;36.70;29.30;;;;;;;11.71;87.38;100062.63;4955296;28;20476;-75
2024/01/26 06:36:45;;;;;;;38.35;29.73;;;;;;;11.74;87.55;100077.44;4972762;28;20055;-73
2024/01/26 06:39:12;;;;;;;33.17;27.27;;;;;;;11.73;87.38;100066.03;4955631;28;20416;-75
2024/01/26 06:41:42;;;;;;;41.53;29.33;;;;;;;11.72;86.86;100066.97;4972478;28;20133;-78
2024/01/26 06:44:09;;;;;;;31.85;26.15;;;;;;;11.76;87.28;100051.81;4972741;28;20056;-77
2024/01/26 06:46:36;;;;;;;36.63;28.05;;;;;;;11.79;87.33;100059.56;4972631;28;20595;-73
2024/01/26 06:49:02;;;;;;;35.03;26.67;;;;;;;11.78;87.26;100049.09;4972964;28;20138;-75
2024/01/26 06:51:29;;;;;;;33.30;26.50;;;;;;;11.80;87.10;100039.28;4955334;28;20567;-77
2024/01/26 06:53:56;;;;;;;31.63;25.98;;;;;;;11.81;86.97;100038.38;4932963;28;20058;-75
2024/01/26 06:56:23;;;;;;;33.83;25.80;;;;;;;11.80;86.97;100042.78;4972793;28;20059;-75
2024/01/26 06:58:49;;;;;;;33.33;27.08;;;;;;;11.81;87.02;100026.03;4972558;28;20500;-76
2024/01/26 07:01:16;;;;;;;32.28;24.63;;;;;;;11.82;87.09;100026.88;4972426;28;20097;-76
2024/01/26 07:03:43;;;;;;;29.27;24.60;;;;;;;11.81;86.93;100026.03;4971932;28;20042;-75
2024/01/26 07:06:09;;;;;;;33.25;26.25;;;;;;;11.80;87.03;100019.06;4972040;28;20117;-76
2024/01/26 07:08:36;;;;;;;29.52;23.73;;;;;;;11.82;86.99;100019.81;4954576;28;20109;-74
2024/01/26 07:11:09;;;;;;;27.83;21.65;;;;;;;11.83;87.05;100018.88;4972286;28;20109;-75
2024/01/26 07:13:35;;;;;;;26.20;22.05;;;;;;;11.83;87.16;100000.41;4954284;28;20106;-78
2024/01/26 07:16:02;;;;;;;24.95;20.90;;;;;;;11.85;87.30;100003.81;4972206;28;20547;-74
2024/01/26 07:18:28;;;;;;;26.63;20.60;;;;;;;11.89;87.11;99995.72;4972448;28;20050;-74
2024/01/26 07:20:55;;;;;;;26.17;21.52;;;;;;;11.89;86.77;99987.81;4955071;28;20642;-74
2024/01/26 07:23:22;;;;;;;24.42;18.95;;;;;;;11.90;86.37;99986.84;4971930;28;20066;-74
2024/01/26 07:25:48;;;;;;;25.95;18.10;;;;;;;11.91;86.35;99984.13;4971389;28;20110;-77
2024/01/26 07:28:15;;;;;;;19.75;17.42;;;;;;;11.90;86.20;99977.16;4972014;28;20093;-73
2024/01/26 07:30:41;;;;;;;20.65;17.92;;;;;;;11.87;86.06;99979.97;4972138;28;20235;-74
2024/01/26 07:33:08;;;;;;;19.95;17.25;;;;;;;11.85;86.38;99977.44;4971814;28;20105;-73
2024/01/26 07:35:36;;;;;;;21.10;16.30;;;;;;;11.85;86.02;99966.88;4971177;28;20078;-73
2024/01/26 07:38:03;;;;;;;21.65;16.33;;;;;;;11.84;86.15;99961.69;4971743;28;20058;-73
2024/01/26 07:40:29;;;;;;;20.42;16.42;;;;;;;11.83;86.25;99952.94;4972028;28;20055;-79
2024/01/26 07:42:56;;;;;;;19.50;15.00;;;;;;;11.80;86.26;99953.13;4971620;28;20413;-73
2024/01/26 07:45:23;;;;;;;18.08;14.35;;;;;;;11.78;86.12;99944.44;4971968;28;20063;-74
2024/01/26 07:47:50;;;;;;;16.63;14.77;;;;;;;11.76;86.36;99946.31;4953449;28;20053;-75
2024/01/26 07:50:17;;;;;;;20.35;15.30;;;;;;;11.74;86.47;99945.59;4971015;28;20126;-74
2024/01/26 07:52:43;;;;;;;14.70;13.20;;;;;;;11.72;86.64;99939.53;4970739;28;20055;-73
2024/01/26 07:55:10;;;;;;;17.83;13.90;;;;;;;11.71;86.69;99932.56;4970956;28;20142;-72
2024/01/26 07:57:37;;;;;;;16.42;14.48;;;;;;;11.70;86.81;99936.16;4953151;28;20058;-74
2024/01/26 08:00:06;;;;;;;20.25;14.75;;;;;;;11.68;87.10;99930.09;4970981;28;20058;-73
2024/01/26 08:02:33;;;;;;;18.60;14.80;;;;;;;11.67;87.15;99925.78;4954498;28;20047;-75
2024/01/26 08:05:00;;;;;;;20.15;14.85;;;;;;;11.66;87.29;99918.81;4972027;28;20121;-73
2024/01/26 08:07:27;;;;;;;19.52;14.63;;;;;;;11.67;87.24;99931.06;4971404;28;20051;-73
2024/01/26 08:09:53;;;;;;;19.08;14.15;;;;;;;11.65;87.36;99925.00;4971795;28;20415;-76
2024/01/26 08:12:20;;;;;;;17.35;14.65;;;;;;;11.65;87.60;99923.22;4972032;28;20047;-74
2024/01/26 08:15:06;;;;;;;15.57;13.70;;;;;;;11.68;87.67;99924.84;4956851;28;20054;-74
2024/01/26 08:17:33;;;;;;;15.73;13.25;;;;;;;11.67;87.60;99913.44;4971586;28;20047;-76
2024/01/26 08:20:03;;;;;;;18.63;14.05;;;;;;;11.67;87.61;99921.34;4953019;28;20057;-74
2024/01/26 08:22:30;;;;;;;21.10;15.02;;;;;;;11.68;87.78;99915.16;4971464;28;20054;-74
2024/01/26 08:25:00;;;;;;;16.75;13.95;;;;;;;11.68;87.55;99912.50;4971611;28;20050;-73
2024/01/26 08:27:27;;;;;;;21.00;13.70;;;;;;;11.68;87.57;99919.56;4971507;28;20086;-73
2024/01/26 08:29:54;;;;;;;16.38;13.73;;;;;;;11.67;87.66;99912.59;4971494;28;20074;-73
2024/01/26 08:32:20;;;;;;;16.05;13.38;;;;;;;11.66;87.89;99916.19;4971636;28;20527;-76
2024/01/26 08:34:47;;;;;;;21.17;14.63;;;;;;;11.65;87.89;99902.13;4971548;28;20480;-75
2024/01/26 08:37:14;;;;;;;16.77;12.25;;;;;;;11.64;88.00;99911.00;4971367;28;20054;-74
2024/01/26 08:39:44;;;;;;;14.98;12.15;;;;;;;11.62;88.14;99919.94;4954079;28;20074;-74
2024/01/26 08:42:12;;;;;;;34.88;12.18;;;;;;;11.60;88.24;99915.56;4971714;28;20150;-74
2024/01/26 08:44:39;;;;;;;15.65;12.63;;;;;;;11.63;88.77;99913.72;4971265;28;20078;-74
2024/01/26 08:47:06;;;;;;;16.70;12.75;;;;;;;11.58;88.83;99906.91;4972473;28;20061;-80
2024/01/26 08:49:32;;;;;;;13.35;11.55;;;;;;;11.59;88.52;99913.06;4974479;28;20058;-75
2024/01/26 08:51:59;;;;;;;13.35;11.40;;;;;;;11.61;88.81;99908.53;4975161;28;20046;-75
2024/01/26 08:54:26;;;;;;;14.02;12.45;;;;;;;11.62;89.03;99909.38;4974736;28;20571;-78
2024/01/26 08:56:52;;;;;;;13.57;11.70;;;;;;;11.62;89.06;99928.66;4974573;28;20051;-74
2024/01/26 08:59:19;;;;;;;12.98;11.60;;;;;;;11.62;88.79;99906.75;4974270;28;20557;-75
2024/01/26 09:01:46;;;;;;;12.48;11.18;;;;;;;11.60;88.97;99920.84;4938451;29;20563;-73
2024/01/26 09:04:13;;;;;;;12.10;10.48;;;;;;;11.63;89.47;99908.44;4938284;29;20058;-74
2024/01/26 09:06:39;;;;;;;10.60;9.50;;;;;;;11.63;89.30;99917.22;4955635;29;20063;-74
2024/01/26 09:09:06;;;;;;;10.55;9.45;;;;;;;11.63;89.49;99911.06;4949060;28;20050;-75
2024/01/26 09:11:33;;;;;;;10.05;8.95;;;;;;;11.62;89.56;99912.84;4974626;28;20051;-74
2024/01/26 09:14:01;;;;;;;10.07;8.30;;;;;;;11.63;89.73;99909.31;4974247;28;20551;-73
2024/01/26 09:16:27;;;;;;;8.75;7.75;;;;;;;11.67;89.80;99907.31;4957303;28;20113;-77
2024/01/26 09:18:54;;;;;;;8.05;7.25;;;;;;;11.70;89.79;99909.78;4956720;28;20058;-73
2024/01/26 09:21:21;;;;;;;8.55;6.93;;;;;;;11.72;89.74;99906.13;4974554;28;20046;-73
2024/01/26 09:23:47;;;;;;;6.30;5.70;;;;;;;11.73;89.95;99914.84;4974348;28;20874;-74
2024/01/26 09:26:14;;;;;;;6.50;5.78;;;;;;;11.75;89.79;99910.34;4957358;28;20055;-73
2024/01/26 09:28:41;;;;;;;6.20;5.30;;;;;;;11.78;89.98;99909.31;4956998;28;20129;-75
2024/01/26 09:31:07;;;;;;;7.50;5.32;;;;;;;11.78;90.23;99906.69;4956849;28;20679;-73
2024/01/26 09:33:34;;;;;;;5.47;4.85;;;;;;;11.81;90.32;99904.69;4974013;28;20142;-74
2024/01/26 09:36:01;;;;;;;6.18;4.63;;;;;;;11.85;90.20;99900.94;4957201;28;20043;-74
2024/01/26 09:38:28;;;;;;;4.97;4.47;;;;;;;11.88;90.19;99920.19;4974168;28;20469;-74
2024/01/26 09:40:54;;;;;;;4.38;3.97;;;;;;;11.91;90.23;99894.44;4973924;28;20054;-74
2024/01/26 09:43:21;;;;;;;4.82;4.32;;;;;;;11.92;90.14;99890.88;4973781;28;20051;-75
2024/01/26 09:45:53;;;;;;;4.30;3.90;;;;;;;11.93;89.99;99889.91;4973875;28;20050;-73
2024/01/26 09:48:20;;;;;;;5.72;4.22;;;;;;;11.98;89.99;99887.00;4956760;28;20066;-76
2024/01/26 09:50:53;;;;;;;4.57;4.13;;;;;;;12.00;90.11;99887.75;4956305;28;20094;-73
2024/01/26 09:53:20;;;;;;;4.72;3.42;;;;;;;12.02;90.03;99891.16;4973823;28;20058;-74
2024/01/26 09:55:47;;;;;;;4.68;3.80;;;;;;;12.03;89.76;99897.31;4973709;28;20105;-74
2024/01/26 09:58:14;;;;;;;5.32;4.45;;;;;;;12.04;89.79;99889.25;4956184;28;20101;-74
2024/01/26 10:00:42;;;;;;;5.38;4.32;;;;;;;12.06;89.76;99876.00;4973051;28;20117;-73
2024/01/26 10:03:09;;;;;;;6.18;4.90;;;;;;;12.07;89.85;99869.81;4973543;28;20152;-74
2024/01/26 10:05:36;;;;;;;5.57;5.00;;;;;;;12.08;89.73;99874.97;4956572;28;20491;-74
2024/01/26 10:08:10;;;;;;;5.05;4.50;;;;;;;12.08;89.55;99876.78;4956431;28;20141;-74
2024/01/26 10:10:37;;;;;;;5.03;4.53;;;;;;;12.12;89.89;99879.13;4973175;28;20057;-75
2024/01/26 10:13:06;;;;;;;5.13;4.43;;;;;;;12.14;89.60;99873.75;4973139;28;20058;-72
2024/01/26 10:15:33;;;;;;;7.30;4.63;;;;;;;12.17;89.68;99864.78;4973548;28;20062;-72
2024/01/26 10:18:00;;;;;;;5.88;4.90;;;;;;;12.18;89.62;99848.88;4973298;28;20500;-74
2024/01/26 10:20:27;;;;;;;6.57;5.05;;;;;;;12.21;89.66;99874.22;4973242;28;20065;-74
2024/01/26 10:22:54;;;;;;;6.65;5.35;;;;;;;12.21;89.67;99877.72;4972838;28;20472;-74
2024/01/26 10:25:21;;;;;;;8.57;6.15;;;;;;;12.23;89.78;99867.06;4972814;28;20050;-74
2024/01/26 10:27:47;;;;;;;6.70;5.95;;;;;;;12.24;89.79;99887.22;4973441;28;20141;-75
2024/01/26 10:30:14;;;;;;;6.50;5.28;;;;;;;12.28;89.80;99903.72;4973343;28;20583;-74
2024/01/26 10:32:43;;;;;;;5.47;4.88;;;;;;;12.27;89.67;99900.25;4973166;28;20477;-83
2024/01/26 10:35:12;;;;;;;5.63;4.95;;;;;;;12.30;89.67;99901.84;4973090;28;20059;-74
2024/01/26 10:37:40;;;;;;;6.35;4.55;;;;;;;12.32;89.58;99913.16;4948305;28;20047;-73
2024/01/26 10:40:10;;;;;;;6.30;5.20;;;;;;;12.33;89.75;99913.06;4955884;28;20082;-75
2024/01/26 10:42:38;;;;;;;5.32;4.57;;;;;;;12.34;89.72;99888.34;4973263;28;20415;-74
2024/01/26 10:45:08;;;;;;;4.88;4.18;;;;;;;12.37;89.47;99925.13;4972786;28;20092;-73
2024/01/26 10:47:39;;;;;;;5.28;3.80;;;;;;;12.38;89.33;99947.94;4972690;28;20046;-74
2024/01/26 10:50:10;;;;;;;10.63;3.78;;;;;;;12.40;89.04;99997.16;4955821;28;20157;-74
2024/01/26 10:52:38;;;;;;;2.55;2.35;;;;;;;12.41;88.27;100012.06;4955616;28;20534;-74
2024/01/26 10:55:06;;;;;;;1.02;1.00;;;;;;;12.35;84.26;100006.22;4972717;28;20133;-72
2024/01/26 10:57:33;;;;;;;0.65;0.60;;;;;;;12.27;81.77;100023.44;4972380;28;20464;-75
2024/01/26 11:00:01;;;;;;;0.40;0.40;;;;;;;12.11;79.86;100026.97;4972750;28;20094;-73
2024/01/26 11:02:32;;;;;;;0.20;0.20;;;;;;;11.91;79.33;100034.25;4955486;28;20137;-76
2024/01/26 11:05:02;;;;;;;0.38;0.30;;;;;;;11.71;79.48;100043.31;4955058;28;20058;-75
2024/01/26 11:07:34;;;;;;;0.77;0.40;;;;;;;11.51;79.40;100042.66;4972360;28;20054;-76
2024/01/26 11:10:24;;;;;;;1.20;0.30;;;;;;;11.29;78.72;100051.75;4971980;28;20117;-73
2024/01/26 11:13:02;;;;;;;0.43;0.22;;;;;;;11.12;77.63;100049.22;4972175;28;20050;-75
2024/01/26 11:15:29;;;;;;;0.45;0.30;;;;;;;11.00;80.61;100048.97;4972416;28;20051;-76